createdAt,value
2023-04-26T00:01:53.964Z,10.28
2023-04-26T00:04:56.775Z,10.28
2023-04-26T00:07:59.552Z,10.30
2023-04-26T00:11:01.440Z,10.33
2023-04-26T00:14:03.297Z,10.33
2023-04-26T00:17:08.730Z,10.29
2023-04-26T00:20:13.020Z,10.40
2023-04-26T00:23:14.904Z,10.62
2023-04-26T00:26:16.724Z,10.74
2023-04-26T00:29:18.529Z,10.72
2023-04-26T00:32:21.753Z,10.82
2023-04-26T00:35:23.832Z,10.72
2023-04-26T00:38:28.686Z,10.82
2023-04-26T00:41:31.490Z,10.73
2023-04-26T00:44:33.447Z,10.64
2023-04-26T00:47:36.851Z,10.54
2023-04-26T00:50:38.955Z,10.64
2023-04-26T00:53:41.726Z,10.27
2023-04-26T00:56:43.746Z,10.61
2023-04-26T00:59:45.852Z,10.56
2023-04-26T01:02:49.291Z,10.09
2023-04-26T01:05:51.409Z,10.10
2023-04-26T01:08:54.929Z,10.19
2023-04-26T01:11:58.478Z,10.04
2023-04-26T01:15:01.152Z,10.35
2023-04-26T01:18:05.115Z,10.35
2023-04-26T01:21:07.193Z,10.07
2023-04-26T01:24:12.225Z,10.01
2023-04-26T01:27:14.324Z,10.22
2023-04-26T01:30:16.948Z,10.02
2023-04-26T01:33:18.796Z,10.16
2023-04-26T01:36:20.654Z,10.20
2023-04-26T01:39:23.888Z,10.15
2023-04-26T01:42:25.718Z,10.21
2023-04-26T01:45:27.771Z,10.19
2023-04-26T01:48:29.689Z,10.21
2023-04-26T01:51:32.832Z,10.21
2023-04-26T01:54:36.195Z,10.18
2023-04-26T01:57:40.371Z,10.17
2023-04-26T02:00:42.232Z,10.09
2023-04-26T02:03:44.086Z,10.08
2023-04-26T02:06:46.018Z,10.01
2023-04-26T02:09:49.756Z,10.04
2023-04-26T02:12:51.621Z,9.80
2023-04-26T02:15:53.577Z,10.00
2023-04-26T02:18:55.875Z,10.01
2023-04-26T02:21:58.526Z,9.91
2023-04-26T02:25:01.866Z,9.93
2023-04-26T02:28:03.902Z,9.88
2023-04-26T02:31:06.345Z,9.61
2023-04-26T02:34:08.723Z,9.78
2023-04-26T02:37:10.704Z,9.72
2023-04-26T02:40:14.009Z,9.83
2023-04-26T02:43:16.130Z,9.78
2023-04-26T02:46:18.346Z,9.86
2023-04-26T02:49:20.327Z,9.85
2023-04-26T02:52:22.191Z,9.82
2023-04-26T02:55:25.740Z,9.75
2023-04-26T02:58:27.608Z,9.73
2023-04-26T03:01:29.519Z,9.67
2023-04-26T03:04:34.165Z,9.63
2023-04-26T03:07:36.091Z,9.46
2023-04-26T03:10:39.303Z,9.54
2023-04-26T03:13:41.158Z,9.51
2023-04-26T03:16:43.560Z,9.58
2023-04-26T03:19:45.468Z,9.59
2023-04-26T03:22:47.524Z,9.35
2023-04-26T03:25:51.147Z,9.66
2023-04-26T03:28:53.253Z,9.64
2023-04-26T03:31:55.441Z,9.61
2023-04-26T03:34:57.540Z,9.59
2023-04-26T03:37:59.506Z,9.59
2023-04-26T03:41:02.842Z,9.61
2023-04-26T03:44:05.169Z,9.15
2023-04-26T03:47:07.193Z,9.24
2023-04-26T03:50:10.012Z,9.56
2023-04-26T03:53:12.099Z,9.54
2023-04-26T03:56:16.204Z,9.56
2023-04-26T03:59:18.091Z,9.35
2023-04-26T04:02:20.091Z,9.43
2023-04-26T04:05:22.111Z,9.25
2023-04-26T04:08:24.194Z,9.55
2023-04-26T04:11:27.586Z,9.73
2023-04-26T04:14:29.540Z,9.73
2023-04-26T04:17:31.532Z,9.69
2023-04-26T04:20:33.475Z,9.65
2023-04-26T04:23:38.749Z,9.72
2023-04-26T04:26:41.942Z,9.75
2023-04-26T04:29:50.869Z,9.49
2023-04-26T04:32:59.053Z,9.54
2023-04-26T04:36:01.142Z,9.53
2023-04-26T04:39:04.488Z,9.41
2023-04-26T04:42:08.679Z,9.41
2023-04-26T04:45:11.087Z,9.73
2023-04-26T04:48:13.096Z,9.40
2023-04-26T04:51:15.012Z,9.83
2023-04-26T04:54:18.735Z,9.54
2023-04-26T04:57:22.105Z,9.60
2023-04-26T05:00:24.006Z,9.43
2023-04-26T05:03:26.269Z,9.48
2023-04-26T05:06:28.673Z,9.71
2023-04-26T05:09:30.527Z,9.96
2023-04-26T05:12:35.383Z,10.01
2023-04-26T05:15:37.518Z,9.88
2023-04-26T05:18:39.444Z,10.00
2023-04-26T05:21:41.336Z,10.18
2023-04-26T05:24:43.192Z,10.25
2023-04-26T05:27:46.491Z,10.25
2023-04-26T05:30:48.714Z,10.11
2023-04-26T05:33:50.958Z,10.16
2023-04-26T05:36:53.114Z,10.37
2023-04-26T05:39:54.987Z,10.45
2023-04-26T05:42:58.405Z,10.52
2023-04-26T05:46:02.008Z,10.52
2023-04-26T05:49:03.902Z,10.57
2023-04-26T05:52:05.956Z,10.71
2023-04-26T05:55:08.399Z,10.70
2023-04-26T05:58:11.747Z,10.63
2023-04-26T06:01:14.887Z,10.80
2023-04-26T06:04:16.878Z,8.99
2023-04-26T06:07:18.930Z,9.03
2023-04-26T06:10:23.469Z,8.93
2023-04-26T06:13:26.912Z,9.05
2023-04-26T06:16:28.717Z,8.86
2023-04-26T06:19:30.577Z,9.02
2023-04-26T06:22:32.450Z,9.19
2023-04-26T06:25:34.373Z,9.23
2023-04-26T06:28:37.566Z,9.30
2023-04-26T06:31:39.490Z,9.76
2023-04-26T06:34:43.895Z,10.35
2023-04-26T06:37:45.940Z,10.85
2023-04-26T06:40:47.737Z,11.26
2023-04-26T06:43:51.451Z,11.51
2023-04-26T06:46:55.044Z,11.32
2023-04-26T06:49:56.992Z,11.81
2023-04-26T06:52:58.935Z,11.97
2023-04-26T06:56:00.759Z,12.09
2023-04-26T06:59:06.966Z,12.25
2023-04-26T07:02:09.228Z,11.77
2023-04-26T07:05:11.470Z,11.17
2023-04-26T07:08:13.436Z,10.93
2023-04-26T07:11:15.477Z,10.95
2023-04-26T07:14:19.135Z,10.87
2023-04-26T07:17:22.307Z,10.62
2023-04-26T07:20:24.408Z,10.94
2023-04-26T07:23:26.297Z,11.19
2023-04-26T07:26:28.453Z,11.01
2023-04-26T07:29:31.851Z,11.42
2023-04-26T07:32:33.735Z,11.20
2023-04-26T07:35:36.191Z,11.28
2023-04-26T07:38:38.192Z,11.72
2023-04-26T07:41:42.622Z,11.53
2023-04-26T07:44:48.046Z,11.40
2023-04-26T07:47:50.026Z,11.65
2023-04-26T07:50:52.200Z,11.43
2023-04-26T07:53:55.807Z,11.43
2023-04-26T07:56:57.815Z,11.52
2023-04-26T08:00:01.255Z,11.58
2023-04-26T08:03:03.673Z,11.72
2023-04-26T08:06:05.905Z,11.51
2023-04-26T08:09:07.948Z,11.59
2023-04-26T08:12:11.425Z,11.66
2023-04-26T08:15:14.717Z,11.36
2023-04-26T08:18:16.543Z,10.98
2023-04-26T08:21:18.342Z,11.21
2023-04-26T08:24:20.132Z,11.50
2023-04-26T08:27:22.637Z,11.58
2023-04-26T08:30:26.023Z,12.24
2023-04-26T08:33:27.928Z,11.89
2023-04-26T08:36:29.815Z,11.72
2023-04-26T08:39:33.198Z,11.68
2023-04-26T08:42:40.188Z,11.59
2023-04-26T08:45:45.955Z,11.87
2023-04-26T08:48:55.276Z,11.84
2023-04-26T08:51:58.718Z,12.56
2023-04-26T08:55:01.227Z,11.95
2023-04-26T08:58:04.081Z,12.12
2023-04-26T09:01:09.450Z,12.12
2023-04-26T09:04:12.443Z,11.97
2023-04-26T09:07:21.353Z,12.30
2023-04-26T09:10:23.625Z,12.31
2023-04-26T09:13:29.603Z,12.60
2023-04-26T09:16:39.042Z,12.71
2023-04-26T09:19:44.555Z,12.97
2023-04-26T09:22:47.269Z,13.20
2023-04-26T09:25:49.114Z,13.01
2023-04-26T09:29:10.841Z,12.82
2023-04-26T09:32:14.078Z,12.95
2023-04-26T09:35:23.050Z,12.66
2023-04-26T09:38:25.044Z,12.01
2023-04-26T09:41:43.487Z,12.43
2023-04-26T09:44:46.354Z,12.64
2023-04-26T09:47:52.955Z,12.74
2023-04-26T09:50:56.558Z,12.56
2023-04-26T09:53:58.495Z,12.45
2023-04-26T09:57:01.822Z,12.75
2023-04-26T10:00:10.998Z,12.50
2023-04-26T10:03:16.032Z,13.22
2023-04-26T10:06:18.169Z,12.80
2023-04-26T10:09:20.174Z,12.09
2023-04-26T10:12:22.158Z,11.88
2023-04-26T10:15:24.117Z,12.71
2023-04-26T10:18:27.429Z,12.59
2023-04-26T10:21:35.384Z,12.65
2023-04-26T10:24:37.620Z,12.69
2023-04-26T10:27:52.757Z,12.60
2023-04-26T10:30:56.337Z,12.52
2023-04-26T10:34:21.763Z,13.34
2023-04-26T10:37:23.640Z,13.37
2023-04-26T10:40:27.533Z,13.44
2023-04-26T10:43:29.867Z,13.32
2023-04-26T10:46:39.831Z,13.03
2023-04-26T10:49:49.243Z,12.55
2023-04-26T10:53:06.409Z,12.55
2023-04-26T10:56:08.392Z,12.76
2023-04-26T11:02:16.110Z,12.82
2023-04-26T11:05:54.215Z,13.41
2023-04-26T11:09:00.266Z,13.96
2023-04-26T11:12:04.372Z,13.65
2023-04-26T11:15:07.362Z,13.29
2023-04-26T11:18:09.247Z,13.18
2023-04-26T11:21:19.664Z,13.24
2023-04-26T11:24:27.277Z,13.00
2023-04-26T11:27:29.328Z,12.81
2023-04-26T11:30:32.065Z,13.06
2023-04-26T11:33:37.093Z,13.05
2023-04-26T11:36:38.899Z,13.11
2023-04-26T11:39:45.254Z,13.46
2023-04-26T11:42:48.066Z,14.16
2023-04-26T11:45:49.923Z,14.46
2023-04-26T11:48:52.142Z,13.79
2023-04-26T11:51:54.627Z,13.80
2023-04-26T11:55:05.914Z,13.21
2023-04-26T11:58:13.100Z,13.03
2023-04-26T12:01:21.388Z,12.85
2023-04-26T12:04:30.151Z,13.46
2023-04-26T12:07:38.609Z,13.55
2023-04-26T12:10:42.118Z,13.70
2023-04-26T12:13:45.434Z,13.47
2023-04-26T12:16:47.390Z,12.92
2023-04-26T12:19:50.317Z,12.74
2023-04-26T12:23:05.630Z,12.82
2023-04-26T12:26:12.100Z,13.09
2023-04-26T12:29:14.169Z,13.04
2023-04-26T12:32:16.638Z,13.45
2023-04-26T12:35:18.683Z,13.88
2023-04-26T12:38:21.007Z,13.82
2023-04-26T12:41:24.677Z,13.92
2023-04-26T12:44:27.156Z,13.01
2023-04-26T12:47:29.234Z,12.78
2023-04-26T12:50:31.295Z,12.58
2023-04-26T12:53:33.934Z,12.51
2023-04-26T12:56:43.552Z,13.20
2023-04-26T12:59:45.535Z,12.88
2023-04-26T13:02:47.755Z,13.08
2023-04-26T13:05:49.818Z,12.74
2023-04-26T13:08:51.752Z,12.43
2023-04-26T13:11:55.036Z,12.92
2023-04-26T13:14:56.953Z,12.53
2023-04-26T13:17:58.997Z,12.43
2023-04-26T13:21:00.858Z,12.59
2023-04-26T13:24:02.767Z,12.62
2023-04-26T13:27:06.288Z,13.20
2023-04-26T13:30:09.545Z,13.00
2023-04-26T13:33:11.722Z,13.15
2023-04-26T13:36:15.366Z,12.91
2023-04-26T13:39:17.177Z,12.59
2023-04-26T13:42:20.771Z,12.35
2023-04-26T13:45:22.658Z,12.19
2023-04-26T13:48:24.622Z,12.31
2023-04-26T13:51:27.237Z,12.03
2023-04-26T13:54:29.133Z,11.91
2023-04-26T13:57:32.433Z,12.21
2023-04-26T14:00:34.483Z,12.12
2023-04-26T14:03:36.799Z,12.41
2023-04-26T14:06:38.921Z,13.06
2023-04-26T14:09:41.070Z,12.98
2023-04-26T14:12:44.541Z,12.59
2023-04-26T14:15:47.628Z,12.39
2023-04-26T14:18:49.507Z,12.36
2023-04-26T14:21:51.458Z,12.44
2023-04-26T14:24:53.435Z,12.40
2023-04-26T14:27:56.619Z,12.51
2023-04-26T14:30:58.494Z,12.67
2023-04-26T14:34:00.615Z,12.66
2023-04-26T14:37:04.095Z,12.01
2023-04-26T14:40:08.119Z,12.18
2023-04-26T14:43:11.654Z,12.11
2023-04-26T14:46:13.742Z,12.39
2023-04-26T14:49:15.790Z,12.86
2023-04-26T14:52:17.742Z,13.05
2023-04-26T14:55:20.156Z,12.97
2023-04-26T14:58:23.878Z,13.21
2023-04-26T15:01:26.039Z,12.93
2023-04-26T15:04:28.183Z,12.59
2023-04-26T15:07:32.607Z,12.48
2023-04-26T15:10:35.059Z,12.39
2023-04-26T15:13:38.493Z,12.24
2023-04-26T15:16:40.850Z,11.90
2023-04-26T15:19:42.989Z,11.69
2023-04-26T15:22:45.365Z,11.51
2023-04-26T15:25:47.361Z,11.48
2023-04-26T15:28:51.270Z,11.51
2023-04-26T15:31:53.113Z,11.58
2023-04-26T15:34:55.312Z,12.07
2023-04-26T15:37:57.165Z,12.37
2023-04-26T15:40:59.061Z,12.18
2023-04-26T15:44:02.703Z,12.03
2023-04-26T15:47:04.859Z,12.09
2023-04-26T15:50:07.886Z,11.89
2023-04-26T15:53:09.982Z,11.71
2023-04-26T15:56:15.556Z,11.94
2023-04-26T15:59:18.851Z,12.01
2023-04-26T16:02:20.894Z,12.12
2023-04-26T16:05:22.792Z,12.11
2023-04-26T16:08:39.592Z,12.23
2023-04-26T16:11:42.527Z,11.67
2023-04-26T16:14:46.973Z,11.39
2023-04-26T16:17:48.988Z,11.47
2023-04-26T16:20:51.496Z,11.44
2023-04-26T16:23:54.663Z,11.42
2023-04-26T16:26:56.610Z,11.45
2023-04-26T16:29:59.899Z,11.64
2023-04-26T16:33:02.370Z,11.66
2023-04-26T16:36:04.813Z,11.70
2023-04-26T16:39:07.702Z,11.52
2023-04-26T16:42:09.569Z,11.31
2023-04-26T16:45:16.248Z,11.37
2023-04-26T16:48:18.448Z,10.88
2023-04-26T16:51:20.389Z,11.08
2023-04-26T16:54:22.294Z,10.95
2023-04-26T16:57:24.260Z,10.81
2023-04-26T17:00:27.534Z,10.78
2023-04-26T17:03:29.576Z,10.93
2023-04-26T17:06:32.100Z,10.82
2023-04-26T17:09:34.903Z,10.80
2023-04-26T17:12:37.840Z,10.81
2023-04-26T17:15:42.226Z,10.68
2023-04-26T17:18:44.490Z,10.72
2023-04-26T17:21:46.901Z,10.46
2023-04-26T17:24:49.265Z,10.54
2023-04-26T17:27:52.114Z,10.43
2023-04-26T17:30:55.512Z,10.48
2023-04-26T17:33:57.592Z,10.45
2023-04-26T17:36:59.787Z,10.39
2023-04-26T17:40:05.487Z,10.24
2023-04-26T17:43:07.848Z,10.21
2023-04-26T17:46:11.524Z,10.17
2023-04-26T17:49:13.615Z,10.15
2023-04-26T17:52:17.453Z,10.11
2023-04-26T17:55:20.140Z,9.96
2023-04-26T17:58:22.931Z,9.94
2023-04-26T18:01:27.045Z,9.83
2023-04-26T18:04:29.377Z,9.73
2023-04-26T18:07:32.190Z,9.52
2023-04-26T18:10:34.634Z,9.41
2023-04-26T18:13:38.364Z,9.05
2023-04-26T18:16:41.904Z,9.22
2023-04-26T18:19:44.194Z,9.15
2023-04-26T18:22:46.532Z,8.95
2023-04-26T18:25:50.975Z,8.97
2023-04-26T18:28:53.132Z,8.45
2023-04-26T18:31:56.820Z,8.28
2023-04-26T18:34:59.238Z,8.00
2023-04-26T18:38:05.043Z,7.91
2023-04-26T18:41:13.726Z,7.83
2023-04-26T18:44:16.641Z,7.63
2023-04-26T18:47:21.245Z,8.00
2023-04-26T18:50:24.155Z,8.04
2023-04-26T18:53:26.959Z,7.95
2023-04-26T18:56:29.860Z,8.31
2023-04-26T18:59:32.723Z,8.19
2023-04-26T19:02:40.511Z,8.09
2023-04-26T19:05:43.886Z,8.10
2023-04-26T19:08:45.863Z,7.90
2023-04-26T19:11:48.162Z,7.90
2023-04-26T19:14:51.598Z,7.79
2023-04-26T19:17:55.739Z,7.50
2023-04-26T19:21:08.499Z,7.61
2023-04-26T19:24:10.485Z,7.53
2023-04-26T19:27:15.240Z,7.34
2023-04-26T19:30:18.360Z,7.79
2023-04-26T19:33:22.391Z,7.71
2023-04-26T19:36:25.884Z,7.73
2023-04-26T19:39:29.287Z,8.13
2023-04-26T19:42:31.877Z,8.12
2023-04-26T19:45:34.225Z,8.10
2023-04-26T19:48:38.032Z,7.97
2023-04-26T19:51:40.430Z,8.24
2023-04-26T19:54:43.294Z,8.20
2023-04-26T19:57:49.480Z,7.94
2023-04-26T20:00:53.834Z,8.05
2023-04-26T20:03:58.061Z,8.16
2023-04-26T20:07:05.325Z,9.06
2023-04-26T20:10:09.151Z,9.26
2023-04-26T20:13:12.087Z,9.01
2023-04-26T20:16:14.740Z,9.50
2023-04-26T20:19:18.828Z,9.49
2023-04-26T20:22:21.717Z,9.51
2023-04-26T20:25:24.330Z,9.31
2023-04-26T20:28:28.305Z,9.14
2023-04-26T20:31:31.507Z,8.84
2023-04-26T20:34:38.318Z,8.97
2023-04-26T20:37:41.033Z,8.83
2023-04-26T20:40:43.508Z,8.35
2023-04-26T20:43:45.858Z,8.18
2023-04-26T20:46:48.120Z,8.29
2023-04-26T20:49:51.397Z,8.34
2023-04-26T20:52:53.414Z,8.19
2023-04-26T20:55:55.552Z,7.89
2023-04-26T20:58:57.881Z,7.58
2023-04-26T21:01:59.847Z,7.28
2023-04-26T21:05:03.096Z,7.06
2023-04-26T21:08:05.266Z,7.02
2023-04-26T21:11:07.097Z,7.05
2023-04-26T21:14:09.340Z,7.07
2023-04-26T21:17:11.380Z,6.85
2023-04-26T21:20:15.261Z,7.04
2023-04-26T21:23:17.245Z,7.28
2023-04-26T21:26:19.126Z,7.30
2023-04-26T21:29:21.073Z,7.24
2023-04-26T21:32:23.014Z,6.85
2023-04-26T21:35:26.556Z,6.88
2023-04-26T21:38:28.489Z,6.84
2023-04-26T21:41:30.463Z,6.91
2023-04-26T21:44:32.448Z,6.80
2023-04-26T21:47:34.407Z,6.84
2023-04-26T21:50:37.747Z,6.78
2023-04-26T21:53:39.723Z,7.01
2023-04-26T21:56:41.655Z,7.21
2023-04-26T21:59:44.019Z,6.99
2023-04-26T22:02:46.445Z,6.89
2023-04-26T22:05:49.788Z,6.77
2023-04-26T22:08:51.644Z,6.62
2023-04-26T22:11:53.630Z,6.92
2023-04-26T22:14:57.853Z,6.92
2023-04-26T22:17:59.860Z,6.64
2023-04-26T22:21:05.520Z,6.91
2023-04-26T22:24:09.103Z,7.28
2023-04-26T22:27:11.218Z,7.11
2023-04-26T22:30:24.919Z,7.22
2023-04-26T22:33:27.710Z,7.12
2023-04-26T22:36:31.189Z,7.22
2023-04-26T22:39:33.338Z,7.43
2023-04-26T22:42:35.298Z,7.40
2023-04-26T22:45:37.308Z,7.25
2023-04-26T22:48:39.347Z,7.04
2023-04-26T22:51:45.980Z,7.22
2023-04-26T22:54:52.893Z,7.03
2023-04-26T22:57:54.820Z,6.85
2023-04-26T23:00:56.803Z,6.97
2023-04-26T23:03:58.729Z,6.90
2023-04-26T23:07:02.067Z,7.26
2023-04-26T23:10:05.101Z,6.94
2023-04-26T23:13:07.048Z,7.01
2023-04-26T23:16:09.171Z,7.03
2023-04-26T23:19:11.325Z,7.10
2023-04-26T23:22:15.750Z,7.54
2023-04-26T23:25:19.989Z,7.43
2023-04-26T23:28:21.982Z,6.93
2023-04-26T23:31:23.992Z,6.91
2023-04-26T23:34:26.039Z,7.12
2023-04-26T23:37:29.407Z,6.97
2023-04-26T23:40:31.345Z,6.68
2023-04-26T23:43:35.567Z,6.45
2023-04-26T23:46:37.528Z,6.46
2023-04-26T23:49:39.459Z,6.40
2023-04-26T23:52:42.709Z,6.40
2023-04-26T23:55:44.656Z,6.14
2023-04-26T23:58:46.662Z,6.32
